Time;durP1;ratioP1;P1;durP2;ratioP2;P2;SDS_P1;SDS_P2;PMS_P1;PMS_P2;Temp;Humidity;BMP_temperature;BMP_pressure;BME280_temperature;BME280_humidity;BME280_pressure;Samples;Min_cycle;Max_cycle;Signal;HPM_P1;HPM_P2
2022/12/02 00:01:09;;;;;;;24.73;12.50;;;;;;;;;;5054858;28;20040;-83
2022/12/02 00:03:36;;;;;;;;;;;;;;;;;;5069676;28;20049;-83
2022/12/02 00:06:01;;;;;;;24.60;13.55;;;;;;;;;;5065614;28;19913;-83
2022/12/02 00:08:26;;;;;;;;;;;;;;;;;;5055968;28;20090;-83
2022/12/02 00:10:53;;;;;;;25.33;12.73;;;;;;;;;;5029413;28;19967;-83
2022/12/02 00:13:21;;;;;;;25.38;12.73;;;;;;;;;;5059904;28;20503;-82
2022/12/02 00:15:47;;;;;;;24.23;12.80;;;;;;;;;;5073440;28;20040;-83
2022/12/02 00:18:12;;;;;;;;;;;;;;;;;;5058687;28;20028;-81
2022/12/02 00:20:38;;;;;;;24.55;13.15;;;;;;;;;;5050758;28;20391;-83
2022/12/02 00:23:03;;;;;;;;;;;;;;;;;;5055240;28;20480;-82
2022/12/02 00:25:29;;;;;;;25.70;13.00;;;;;;;;;;5060617;28;19992;-83
2022/12/02 00:27:54;;;;;;;;;;;;;;;;;;5058361;28;20028;-82
2022/12/02 00:30:20;;;;;;;24.08;12.88;;;;;;;;;;5073932;28;19922;-82
2022/12/02 00:32:45;;;;;;;26.13;13.82;;;;;;;;;;5071655;28;20486;-83
2022/12/02 00:35:11;;;;;;;23.92;12.90;;;;;;;;;;5050799;28;20036;-83
2022/12/02 00:37:36;;;;;;;;;;;;;;;;;;5025313;28;20028;-82
2022/12/02 00:40:02;;;;;;;24.67;13.23;;;;;;;;;;5057263;28;20033;-82
2022/12/02 00:42:27;;;;;;;24.95;12.57;;;;;;;;;;5074126;28;20031;-83
2022/12/02 00:47:37;;;;;;;25.10;13.43;;;;;;;;;;5078253;28;20044;-82
2022/12/02 00:50:02;;;;;;;;;;;;;;;;;;5085170;28;20039;-82
2022/12/02 00:52:28;;;;;;;24.80;13.07;;;;;;;;;;5050566;28;19961;-82
2022/12/02 00:54:53;;;;;;;;;;;;;;;;;;5060264;28;20036;-82
2022/12/02 00:57:19;;;;;;;23.25;13.07;;;;;;;;;;5077318;28;20365;-83
2022/12/02 00:59:44;;;;;;;;;;;;;;;;;;5062709;28;20103;-82
2022/12/02 01:02:09;;;;;;;23.90;12.43;;;;;;;;;;5059443;28;19966;-83
2022/12/02 01:04:35;;;;;;;26.20;13.65;;;;;;;;;;5080199;28;20057;-83
2022/12/02 01:07:00;;;;;;;22.33;12.63;;;;;;;;;;5069950;28;20036;-83
2022/12/02 01:09:26;;;;;;;;;;;;;;;;;;5073200;28;20107;-83
2022/12/02 01:11:51;;;;;;;23.42;13.10;;;;;;;;;;5088777;28;20298;-83
2022/12/02 01:14:17;;;;;;;24.02;13.10;;;;;;;;;;5073013;28;20023;-83
2022/12/02 01:16:42;;;;;;;;;;;;;;;;;;5070006;28;20043;-83
2022/12/02 01:19:08;;;;;;;25.65;13.15;;;;;;;;;;5079700;28;19962;-83
2022/12/02 01:21:33;;;;;;;26.88;13.65;;;;;;;;;;5064196;28;20039;-82
2022/12/02 01:23:59;;;;;;;23.42;12.82;;;;;;;;;;5082423;28;20039;-82
2022/12/02 01:26:24;;;;;;;22.35;12.73;;;;;;;;;;5075728;28;20082;-82
2022/12/02 01:28:50;;;;;;;24.58;13.60;;;;;;;;;;5078723;28;20050;-82
2022/12/02 01:31:15;;;;;;;;;;;;;;;;;;5055029;28;20074;-82
2022/12/02 01:33:41;;;;;;;24.17;12.75;;;;;;;;;;5091797;28;19998;-82
2022/12/02 01:36:06;;;;;;;;;;;;;;;;;;5056206;28;20044;-82
2022/12/02 01:38:32;;;;;;;24.27;12.57;;;;;;;;;;5047475;28;20007;-82
2022/12/02 01:40:57;;;;;;;;;;;;;;;;;;5069573;28;20115;-82
2022/12/02 01:43:23;;;;;;;24.63;12.48;;;;;;;;;;5062257;28;19908;-81
2022/12/02 01:45:48;;;;;;;;;;;;;;;;;;5063227;28;20040;-82
2022/12/02 01:48:13;;;;;;;25.00;12.77;;;;;;;;;;5081555;28;19912;-81
2022/12/02 01:50:40;;;;;;;25.35;13.20;;;;;;;;;;5051562;28;20051;-82
2022/12/02 01:53:05;;;;;;;;;;;;;;;;;;5070594;28;20020;-81
2022/12/02 01:55:31;;;;;;;26.25;11.73;;;;;;;;;;5066521;28;19954;-81
2022/12/02 01:57:56;;;;;;;24.08;12.60;;;;;;;;;;5061627;28;20529;-81
2022/12/02 02:00:22;;;;;;;;;;;;;;;;;;5046966;28;20059;-81
2022/12/02 02:02:47;;;;;;;21.75;11.65;;;;;;;;;;5061490;28;19919;-82
2022/12/02 02:05:20;;;;;;;22.73;12.20;;;;;;;;;;5053103;28;20070;-82
2022/12/02 02:07:47;;;;;;;25.70;12.98;;;;;;;;;;5045102;28;20044;-83
2022/12/02 02:10:12;;;;;;;23.67;12.57;;;;;;;;;;5063244;28;20182;-82
2022/12/02 02:12:39;;;;;;;21.88;12.48;;;;;;;;;;5051160;28;20035;-82
2022/12/02 02:15:04;;;;;;;;;;;;;;;;;;5063907;28;20372;-82
2022/12/02 02:17:30;;;;;;;23.80;12.45;;;;;;;;;;5086256;28;19920;-81
2022/12/02 02:19:55;;;;;;;20.77;11.32;;;;;;;;;;5063535;28;20020;-82
2022/12/02 02:22:44;;;;;;;22.02;11.98;;;;;;;;;;5068375;28;20039;-82
2022/12/02 02:25:11;;;;;;;24.00;12.38;;;;;;;;;;5053183;28;20040;-82
2022/12/02 02:27:37;;;;;;;19.75;11.43;;;;;;;;;;5059551;28;20075;-83
2022/12/02 02:30:02;;;;;;;;;;;;;;;;;;5058132;28;20048;-82
2022/12/02 02:32:28;;;;;;;22.52;12.50;;;;;;;;;;5053165;28;20379;-83
2022/12/02 02:34:54;;;;;;;22.55;12.90;;;;;;;;;;5052410;28;20254;-82
2022/12/02 02:37:19;;;;;;;22.35;12.45;;;;;;;;;;5081665;28;20032;-81
2022/12/02 02:39:44;;;;;;;;;;;;;;;;;;5069475;28;20157;-81
2022/12/02 02:42:11;;;;;;;22.55;11.40;;;;;;;;;;5067510;28;19908;-82
2022/12/02 02:44:36;;;;;;;;;;;;;;;;;;5076596;28;20038;-82
2022/12/02 02:47:02;;;;;;;25.45;13.82;;;;;;;;;;5068267;28;19915;-83
2022/12/02 02:49:27;;;;;;;;;;;;;;;;;;5067809;28;20032;-82
2022/12/02 02:51:53;;;;;;;26.45;11.73;;;;;;;;;;5085617;28;20119;-82
2022/12/02 02:54:18;;;;;;;;;;;;;;;;;;5049113;28;20126;-82
2022/12/02 02:56:44;;;;;;;21.80;11.60;;;;;;;;;;5075849;28;19919;-82
2022/12/02 02:59:11;;;;;;;21.30;11.70;;;;;;;;;;5046533;28;20035;-83
2022/12/02 03:01:37;;;;;;;20.23;11.10;;;;;;;;;;5025913;28;20036;-82
2022/12/02 03:04:08;;;;;;;24.00;11.45;;;;;;;;;;5063700;28;20556;-82
2022/12/02 03:06:33;;;;;;;23.38;12.23;;;;;;;;;;5065237;28;20114;-83
2022/12/02 03:08:59;;;;;;;;;;;;;;;;;;5023156;28;20114;-83
2022/12/02 03:11:25;;;;;;;20.90;11.55;;;;;;;;;;5081620;28;19928;-83
2022/12/02 03:13:50;;;;;;;21.10;11.27;;;;;;;;;;5071061;28;20495;-84
2022/12/02 03:16:17;;;;;;;20.63;11.60;;;;;;;;;;5059662;28;20036;-83
2022/12/02 03:18:42;;;;;;;19.85;10.88;;;;;;;;;;5058570;28;20028;-83
2022/12/02 03:21:08;;;;;;;;;;;;;;;;;;5057758;28;20036;-83
2022/12/02 03:23:36;;;;;;;22.58;11.73;;;;;;;;;;5071156;28;19918;-83
2022/12/02 03:26:02;;;;;;;23.15;11.90;;;;;;;;;;5052950;28;20059;-83
2022/12/02 03:28:27;;;;;;;;;;;;;;;;;;5055755;28;20468;-83
2022/12/02 03:30:53;;;;;;;22.05;11.77;;;;;;;;;;5070138;28;20343;-83
2022/12/02 03:33:18;;;;;;;;;;;;;;;;;;5060476;28;20404;-83
2022/12/02 03:35:44;;;;;;;22.75;10.73;;;;;;;;;;5087006;28;20268;-82
2022/12/02 03:38:09;;;;;;;20.27;10.65;;;;;;;;;;5051311;28;20059;-82
2022/12/02 03:40:35;;;;;;;19.30;11.05;;;;;;;;;;5067031;28;20062;-82
2022/12/02 03:43:00;;;;;;;;;;;;;;;;;;5051431;28;20055;-81
2022/12/02 03:45:26;;;;;;;20.70;11.30;;;;;;;;;;5076712;28;20410;-82
2022/12/02 03:47:51;;;;;;;21.30;11.20;;;;;;;;;;5077786;28;20032;-82
2022/12/02 03:50:17;;;;;;;21.92;11.85;;;;;;;;;;5053591;28;20124;-84
2022/12/02 03:52:42;;;;;;;21.45;11.80;;;;;;;;;;5087433;28;20111;-82
2022/12/02 03:55:08;;;;;;;21.48;11.50;;;;;;;;;;5069521;28;20128;-81
2022/12/02 03:57:34;;;;;;;19.73;12.25;;;;;;;;;;5068701;28;20035;-82
2022/12/02 03:59:59;;;;;;;26.40;13.85;;;;;;;;;;5060442;28;20037;-82
2022/12/02 04:02:25;;;;;;;23.27;12.07;;;;;;;;;;5050523;28;20039;-83
2022/12/02 04:04:50;;;;;;;;;;;;;;;;;;5052006;28;20134;-81
2022/12/02 04:07:16;;;;;;;19.00;10.52;;;;;;;;;;5077180;28;19912;-83
2022/12/02 04:09:41;;;;;;;22.85;11.57;;;;;;;;;;5085783;28;20380;-81
2022/12/02 04:12:07;;;;;;;22.60;12.02;;;;;;;;;;5066479;28;20115;-82
2022/12/02 04:14:32;;;;;;;22.50;11.65;;;;;;;;;;5067648;28;20046;-84
2022/12/02 04:16:58;;;;;;;;;;;;;;;;;;5066717;28;20028;-81
2022/12/02 04:19:23;;;;;;;22.80;11.63;;;;;;;;;;5086218;28;20015;-81
2022/12/02 04:21:49;;;;;;;25.65;11.75;;;;;;;;;;5056014;28;20032;-84
2022/12/02 04:24:14;;;;;;;;;;;;;;;;;;5047970;28;20051;-82
2022/12/02 04:26:40;;;;;;;21.30;11.38;;;;;;;;;;5065795;28;19908;-83
2022/12/02 04:29:05;;;;;;;;;;;;;;;;;;5052507;28;20518;-83
2022/12/02 04:31:30;;;;;;;21.17;11.55;;;;;;;;;;5079085;28;20018;-83
2022/12/02 04:33:56;;;;;;;;;;;;;;;;;;5086137;28;20086;-83
2022/12/02 04:36:21;;;;;;;21.42;10.85;;;;;;;;;;5067431;28;19916;-82
2022/12/02 04:38:46;;;;;;;;;;;;;;;;;;5085702;28;20028;-82
2022/12/02 04:41:12;;;;;;;19.85;10.88;;;;;;;;;;5061195;28;19915;-82
2022/12/02 04:43:37;;;;;;;24.05;11.63;;;;;;;;;;5073176;28;20044;-82
2022/12/02 04:46:03;;;;;;;20.02;11.43;;;;;;;;;;5071907;28;20036;-83
2022/12/02 04:48:28;;;;;;;23.00;12.57;;;;;;;;;;5073963;28;20034;-84
2022/12/02 04:50:54;;;;;;;21.85;12.57;;;;;;;;;;5072851;28;20085;-83
2022/12/02 04:53:19;;;;;;;21.85;11.27;;;;;;;;;;5055633;28;20513;-85
2022/12/02 04:55:45;;;;;;;17.58;9.90;;;;;;;;;;5069693;28;20104;-85
2022/12/02 04:58:11;;;;;;;;;;;;;;;;;;5071459;28;20029;-82
2022/12/02 05:00:36;;;;;;;20.98;11.10;;;;;;;;;;5072181;28;19920;-85
2022/12/02 05:03:01;;;;;;;19.63;11.45;;;;;;;;;;5078429;28;20119;-83
2022/12/02 05:05:27;;;;;;;22.40;12.77;;;;;;;;;;5077270;28;20052;-83
2022/12/02 05:07:52;;;;;;;20.42;11.55;;;;;;;;;;5060881;28;20028;-84
2022/12/02 05:10:18;;;;;;;;;;;;;;;;;;5082970;28;20036;-83
2022/12/02 05:12:43;;;;;;;20.80;11.07;;;;;;;;;;5074647;28;20386;-83
2022/12/02 05:15:09;;;;;;;22.40;11.60;;;;;;;;;;5074149;28;20028;-85
2022/12/02 05:17:34;;;;;;;;;;;;;;;;;;5059747;28;20400;-83
2022/12/02 05:20:00;;;;;;;19.92;10.77;;;;;;;;;;5072693;28;19913;-81
2022/12/02 05:22:25;;;;;;;;;;;;;;;;;;5072939;28;20107;-84
2022/12/02 05:24:51;;;;;;;22.20;12.98;;;;;;;;;;5086013;28;19912;-83
2022/12/02 05:27:16;;;;;;;19.48;11.18;;;;;;;;;;5072462;28;20020;-84
2022/12/02 05:29:42;;;;;;;20.63;10.95;;;;;;;;;;5038791;28;20048;-84
2022/12/02 05:32:07;;;;;;;19.40;12.07;;;;;;;;;;5083561;28;20126;-84
2022/12/02 05:34:33;;;;;;;20.83;11.02;;;;;;;;;;5071821;28;20054;-84
2022/12/02 05:36:59;;;;;;;;;;;;;;;;;;5079501;28;20514;-83
2022/12/02 05:39:24;;;;;;;19.05;10.63;;;;;;;;;;5069726;28;19911;-83
2022/12/02 05:41:50;;;;;;;;;;;;;;;;;;5079164;28;20028;-83
2022/12/02 05:44:17;;;;;;;19.05;10.15;;;;;;;;;;5070724;28;19912;-83
2022/12/02 05:46:42;;;;;;;18.60;10.02;;;;;;;;;;5082561;28;20510;-84
2022/12/02 05:49:07;;;;;;;;;;;;;;;;;;5084394;28;20036;-84
2022/12/02 05:51:33;;;;;;;18.08;10.10;;;;;;;;;;5083105;28;20076;-84
2022/12/02 05:53:58;;;;;;;26.55;14.07;;;;;;;;;;5089242;28;20034;-84
2022/12/02 05:56:24;;;;;;;;;;;;;;;;;;5072993;28;20032;-83
2022/12/02 05:58:50;;;;;;;22.63;12.38;;;;;;;;;;5084798;28;19908;-84
2022/12/02 06:01:26;;;;;;;24.45;12.05;;;;;;;;;;5065215;28;20040;-84
2022/12/02 06:03:52;;;;;;;;;;;;;;;;;;5072650;28;20056;-84
2022/12/02 06:06:18;;;;;;;22.52;11.77;;;;;;;;;;5076963;28;19955;-84
2022/12/02 06:08:44;;;;;;;21.70;12.13;;;;;;;;;;5042536;28;20151;-84
2022/12/02 06:11:09;;;;;;;;;;;;;;;;;;5089338;28;20111;-84
2022/12/02 06:13:35;;;;;;;21.58;11.73;;;;;;;;;;5083162;28;19916;-84
2022/12/02 06:16:02;;;;;;;17.13;9.82;;;;;;;;;;5070617;28;20048;-84
2022/12/02 06:18:29;;;;;;;16.73;9.90;;;;;;;;;;5087295;28;20032;-83
2022/12/02 06:20:59;;;;;;;17.08;9.55;;;;;;;;;;5070041;28;20040;-84
2022/12/02 06:23:51;;;;;;;15.85;9.20;;;;;;;;;;5075718;28;20081;-84
2022/12/02 06:26:17;;;;;;;17.10;10.18;;;;;;;;;;5069388;28;20036;-83
2022/12/02 06:28:43;;;;;;;18.50;11.38;;;;;;;;;;5060292;28;20039;-83
2022/12/02 06:31:16;;;;;;;17.23;10.30;;;;;;;;;;5064908;28;20037;-83
2022/12/02 06:33:41;;;;;;;18.73;10.05;;;;;;;;;;5064079;28;20036;-83
2022/12/02 06:36:06;;;;;;;;;;;;;;;;;;5084885;28;20070;-83
2022/12/02 06:38:34;;;;;;;17.95;10.00;;;;;;;;;;5081942;28;19943;-83
2022/12/02 06:40:59;;;;;;;19.73;10.05;;;;;;;;;;5070651;28;20497;-83
2022/12/02 06:43:26;;;;;;;19.88;10.05;;;;;;;;;;5071649;28;20036;-84
2022/12/02 06:45:51;;;;;;;15.45;9.35;;;;;;;;;;5041348;28;20034;-84
2022/12/02 06:48:16;;;;;;;;;;;;;;;;;;5079379;28;20490;-84
2022/12/02 06:50:43;;;;;;;31.20;17.30;;;;;;;;;;5081755;28;19966;-84
2022/12/02 06:53:08;;;;;;;17.73;9.57;;;;;;;;;;5070777;28;20024;-83
2022/12/02 06:55:33;;;;;;;;;;;;;;;;;;5067555;28;20020;-85
2022/12/02 06:58:21;;;;;;;18.77;9.90;;;;;;;;;;5070794;28;19919;-83
2022/12/02 07:00:47;;;;;;;18.00;9.68;;;;;;;;;;5088123;28;20104;-84
2022/12/02 07:03:26;;;;;;;18.73;10.38;;;;;;;;;;5069242;28;20028;-82
2022/12/02 07:05:53;;;;;;;18.63;9.70;;;;;;;;;;5052349;28;20043;-83
2022/12/02 07:08:18;;;;;;;18.55;10.38;;;;;;;;;;5047957;28;20099;-83
2022/12/02 07:10:44;;;;;;;17.73;10.30;;;;;;;;;;5077933;28;20134;-85
2022/12/02 07:13:12;;;;;;;19.58;11.40;;;;;;;;;;5074171;28;20111;-84
2022/12/02 07:15:40;;;;;;;21.02;11.73;;;;;;;;;;5053543;28;20034;-86
2022/12/02 07:18:23;;;;;;;20.48;11.40;;;;;;;;;;5050212;28;20121;-84
2022/12/02 07:20:49;;;;;;;17.83;10.90;;;;;;;;;;5053221;28;20048;-85
2022/12/02 07:23:17;;;;;;;18.80;10.77;;;;;;;;;;5051734;28;20107;-85
2022/12/02 07:25:43;;;;;;;21.25;11.43;;;;;;;;;;5088183;28;20086;-84
2022/12/02 07:28:18;;;;;;;21.42;11.30;;;;;;;;;;5069138;28;20483;-84
2022/12/02 07:30:43;;;;;;;21.38;10.57;;;;;;;;;;5082335;28;20036;-85
2022/12/02 07:33:09;;;;;;;19.70;10.43;;;;;;;;;;5048121;28;20028;-84
2022/12/02 07:35:34;;;;;;;19.35;11.10;;;;;;;;;;5082035;28;20032;-84
2022/12/02 07:38:00;;;;;;;18.17;10.50;;;;;;;;;;5081841;28;20426;-84
2022/12/02 07:40:26;;;;;;;21.50;10.52;;;;;;;;;;5046793;28;20031;-84
2022/12/02 07:42:52;;;;;;;22.55;11.50;;;;;;;;;;5069435;28;20035;-85
2022/12/02 07:45:18;;;;;;;17.85;10.20;;;;;;;;;;5075529;28;20060;-84
2022/12/02 07:47:44;;;;;;;19.40;10.52;;;;;;;;;;5040317;28;20110;-85
2022/12/02 07:50:09;;;;;;;22.33;10.75;;;;;;;;;;5068833;28;20089;-83
2022/12/02 07:52:35;;;;;;;19.02;10.30;;;;;;;;;;5051876;28;20429;-84
2022/12/02 07:55:01;;;;;;;20.38;11.23;;;;;;;;;;5052094;28;20036;-84
2022/12/02 07:57:27;;;;;;;23.70;12.85;;;;;;;;;;5056495;28;20024;-84
2022/12/02 07:59:52;;;;;;;;;;;;;;;;;;5066733;28;20406;-83
2022/12/02 08:02:17;;;;;;;24.65;10.25;;;;;;;;;;5066410;28;19915;-84
2022/12/02 08:04:43;;;;;;;20.23;9.73;;;;;;;;;;5051083;28;20067;-85
2022/12/02 08:07:09;;;;;;;17.85;9.65;;;;;;;;;;5055592;28;20044;-85
2022/12/02 08:09:34;;;;;;;17.73;10.68;;;;;;;;;;5065883;28;20522;-84
2022/12/02 08:11:59;;;;;;;17.88;10.07;;;;;;;;;;5073071;28;20043;-85
2022/12/02 08:14:25;;;;;;;21.38;9.98;;;;;;;;;;5075661;28;20487;-84
2022/12/02 08:16:50;;;;;;;17.55;9.52;;;;;;;;;;5081339;28;20121;-84
2022/12/02 08:19:16;;;;;;;18.83;9.55;;;;;;;;;;5057628;28;20487;-84
2022/12/02 08:21:42;;;;;;;18.63;9.13;;;;;;;;;;5080644;28;20039;-84
2022/12/02 08:24:07;;;;;;;19.15;10.10;;;;;;;;;;5067469;28;20150;-85
2022/12/02 08:26:33;;;;;;;18.67;9.73;;;;;;;;;;5082370;28;20043;-84
2022/12/02 08:28:59;;;;;;;24.55;13.52;;;;;;;;;;5079993;28;20029;-85
2022/12/02 08:31:24;;;;;;;18.40;9.57;;;;;;;;;;5053104;28;20040;-84
2022/12/02 08:33:50;;;;;;;16.63;9.48;;;;;;;;;;5063416;28;20086;-85
2022/12/02 08:36:15;;;;;;;18.33;9.73;;;;;;;;;;5044257;28;20037;-85
2022/12/02 08:38:41;;;;;;;18.58;9.30;;;;;;;;;;5064767;28;20031;-83
2022/12/02 08:41:07;;;;;;;17.25;9.60;;;;;;;;;;5061063;28;20032;-84
2022/12/02 08:43:32;;;;;;;21.83;9.52;;;;;;;;;;5065030;28;20130;-85
2022/12/02 08:45:57;;;;;;;17.80;9.82;;;;;;;;;;5060709;28;20082;-84
2022/12/02 08:48:23;;;;;;;18.25;10.23;;;;;;;;;;5064776;28;20071;-84
2022/12/02 08:50:49;;;;;;;17.95;10.35;;;;;;;;;;5040448;28;20115;-84
2022/12/02 08:53:14;;;;;;;17.55;9.45;;;;;;;;;;5052747;28;20036;-84
2022/12/02 08:55:40;;;;;;;19.20;9.98;;;;;;;;;;5072659;28;20037;-84
2022/12/02 08:58:05;;;;;;;21.58;11.57;;;;;;;;;;5081768;28;20024;-84
2022/12/02 09:00:30;;;;;;;28.90;15.50;;;;;;;;;;5078746;28;20446;-83
2022/12/02 09:02:56;;;;;;;18.42;9.20;;;;;;;;;;5058107;28;20120;-84
2022/12/02 09:05:21;;;;;;;15.13;8.32;;;;;;;;;;5035644;28;20122;-84
2022/12/02 09:07:47;;;;;;;16.10;8.35;;;;;;;;;;5063285;28;20056;-84
2022/12/02 09:10:13;;;;;;;15.43;8.45;;;;;;;;;;5059510;28;20496;-84
2022/12/02 09:12:38;;;;;;;15.57;9.05;;;;;;;;;;5075327;28;20510;-85
2022/12/02 09:15:04;;;;;;;15.95;8.00;;;;;;;;;;5042050;28;20108;-86
2022/12/02 09:17:30;;;;;;;16.80;8.23;;;;;;;;;;5058356;28;20091;-83
2022/12/02 09:19:55;;;;;;;16.83;8.18;;;;;;;;;;5076156;28;20527;-84
2022/12/02 09:22:21;;;;;;;19.77;9.35;;;;;;;;;;5043669;28;20028;-84
2022/12/02 09:24:46;;;;;;;15.80;8.35;;;;;;;;;;5058901;28;20499;-85
2022/12/02 09:27:12;;;;;;;18.27;8.57;;;;;;;;;;5075218;28;20028;-84
2022/12/02 09:29:37;;;;;;;13.40;7.63;;;;;;;;;;5057764;28;20027;-83
2022/12/02 09:32:03;;;;;;;13.63;7.20;;;;;;;;;;5046505;28;20322;-85
2022/12/02 09:34:28;;;;;;;13.73;7.63;;;;;;;;;;5052551;28;20029;-84
2022/12/02 09:36:54;;;;;;;15.55;8.45;;;;;;;;;;5054667;28;20032;-83
2022/12/02 09:39:19;;;;;;;15.90;7.70;;;;;;;;;;5068225;28;20450;-85
2022/12/02 09:41:45;;;;;;;17.40;9.88;;;;;;;;;;5069893;28;20070;-85
2022/12/02 09:44:10;;;;;;;16.38;9.70;;;;;;;;;;5039093;28;20032;-85
2022/12/02 09:46:36;;;;;;;11.43;7.00;;;;;;;;;;5062572;28;20036;-85
2022/12/02 09:49:02;;;;;;;13.30;7.00;;;;;;;;;;5047658;28;20024;-84
2022/12/02 09:51:27;;;;;;;11.50;7.05;;;;;;;;;;5062747;28;20071;-85
2022/12/02 09:53:53;;;;;;;15.82;7.95;;;;;;;;;;5066848;28;20032;-86
2022/12/02 09:56:19;;;;;;;12.40;6.53;;;;;;;;;;5086922;28;20024;-86
2022/12/02 09:58:45;;;;;;;13.25;8.32;;;;;;;;;;5022599;28;20028;-84
2022/12/02 10:01:11;;;;;;;15.48;7.38;;;;;;;;;;5060252;28;20032;-87
2022/12/02 10:03:36;;;;;;;14.05;7.25;;;;;;;;;;5046412;28;20065;-85
2022/12/02 10:06:03;;;;;;;13.95;7.43;;;;;;;;;;5033772;28;20041;-86
2022/12/02 10:08:28;;;;;;;14.82;7.50;;;;;;;;;;5070651;28;20036;-86
2022/12/02 10:10:55;;;;;;;11.90;6.97;;;;;;;;;;5077962;28;20078;-85
2022/12/02 10:13:23;;;;;;;12.93;7.35;;;;;;;;;;5042885;28;20401;-85
2022/12/02 10:15:49;;;;;;;11.35;7.05;;;;;;;;;;5036508;28;20043;-84
2022/12/02 10:18:18;;;;;;;13.25;6.88;;;;;;;;;;5042005;28;20028;-83
2022/12/02 10:20:43;;;;;;;15.45;6.57;;;;;;;;;;5071410;28;20040;-84
2022/12/02 10:23:16;;;;;;;14.00;8.15;;;;;;;;;;5062983;28;20033;-84
2022/12/02 10:25:43;;;;;;;14.07;7.68;;;;;;;;;;5035651;28;20051;-84
2022/12/02 10:28:16;;;;;;;13.85;6.85;;;;;;;;;;5073253;28;20071;-84
2022/12/02 10:30:47;;;;;;;12.65;7.53;;;;;;;;;;5069308;28;20036;-85
2022/12/02 10:33:12;;;;;;;12.43;7.05;;;;;;;;;;5043170;28;20160;-83
2022/12/02 10:35:45;;;;;;;12.77;6.68;;;;;;;;;;5053645;28;20071;-84
2022/12/02 10:38:29;;;;;;;12.85;7.20;;;;;;;;;;5048625;28;20547;-85
2022/12/02 10:41:11;;;;;;;12.95;6.85;;;;;;;;;;5066878;28;20473;-83
2022/12/02 10:43:36;;;;;;;14.75;7.10;;;;;;;;;;5071161;28;20066;-83
2022/12/02 10:46:02;;;;;;;16.35;9.68;;;;;;;;;;5082606;28;20115;-83
2022/12/02 10:48:27;;;;;;;13.32;7.03;;;;;;;;;;5064950;28;20380;-85
2022/12/02 10:50:53;;;;;;;14.90;7.43;;;;;;;;;;5082827;28;20056;-84
2022/12/02 10:53:19;;;;;;;13.48;7.15;;;;;;;;;;5064697;28;20085;-84
2022/12/02 10:55:44;;;;;;;14.32;6.85;;;;;;;;;;5068525;28;20055;-84
2022/12/02 10:58:14;;;;;;;15.85;7.72;;;;;;;;;;5076240;28;20028;-84
2022/12/02 11:00:40;;;;;;;10.10;6.45;;;;;;;;;;5069048;28;20115;-84
2022/12/02 11:03:05;;;;;;;12.23;6.53;;;;;;;;;;5076680;28;20166;-86
2022/12/02 11:05:31;;;;;;;13.50;7.22;;;;;;;;;;5081408;28;20048;-84
2022/12/02 11:07:57;;;;;;;;;;;;;;;;;;5045916;28;20036;-86
2022/12/02 11:10:23;;;;;;;11.18;6.78;;;;;;;;;;5066408;28;19919;-83
2022/12/02 11:12:52;;;;;;;13.65;7.38;;;;;;;;;;5038771;28;20040;-85
2022/12/02 11:15:36;;;;;;;14.15;7.18;;;;;;;;;;5063789;28;20055;-86
2022/12/02 11:18:02;;;;;;;14.80;7.28;;;;;;;;;;5052701;28;20032;-85
2022/12/02 11:20:31;;;;;;;16.48;7.07;;;;;;;;;;5066612;28;20024;-84
2022/12/02 11:22:59;;;;;;;14.07;8.13;;;;;;;;;;5080257;28;20032;-85
2022/12/02 11:25:43;;;;;;;15.52;8.07;;;;;;;;;;5066668;28;20046;-85
2022/12/02 11:28:27;;;;;;;13.30;6.93;;;;;;;;;;5064889;28;20408;-84
2022/12/02 11:31:19;;;;;;;13.82;6.88;;;;;;;;;;5065827;28;20036;-84
2022/12/02 11:33:48;;;;;;;14.30;6.80;;;;;;;;;;5051093;28;20048;-83
2022/12/02 11:36:17;;;;;;;11.38;6.57;;;;;;;;;;5054019;28;20022;-83
2022/12/02 11:39:00;;;;;;;11.93;6.70;;;;;;;;;;5077652;28;20561;-85
2022/12/02 11:41:44;;;;;;;14.98;7.30;;;;;;;;;;5068331;28;20028;-84
2022/12/02 11:44:22;;;;;;;15.07;7.55;;;;;;;;;;5064048;28;20028;-83
2022/12/02 11:46:51;;;;;;;16.52;8.00;;;;;;;;;;5081031;28;20032;-85
2022/12/02 11:49:21;;;;;;;13.63;7.53;;;;;;;;;;5064694;28;20036;-85
2022/12/02 11:51:47;;;;;;;14.18;7.60;;;;;;;;;;5075595;28;20060;-83
2022/12/02 11:54:13;;;;;;;12.77;7.40;;;;;;;;;;5072485;28;20540;-84
2022/12/02 11:56:38;;;;;;;;;;;;;;;;;;5068335;28;20039;-85
2022/12/02 11:59:36;;;;;;;13.73;7.53;;;;;;;;;;5048376;28;20406;-85
2022/12/02 12:02:14;;;;;;;13.23;7.20;;;;;;;;;;5037905;28;20032;-85
2022/12/02 12:04:40;;;;;;;11.98;6.57;;;;;;;;;;5076967;28;20060;-85
2022/12/02 12:07:06;;;;;;;16.13;7.43;;;;;;;;;;5060215;28;20033;-85
2022/12/02 12:09:31;;;;;;;14.30;7.40;;;;;;;;;;5047017;28;20032;-85
2022/12/02 12:12:12;;;;;;;11.32;6.63;;;;;;;;;;5065440;28;20040;-85
2022/12/02 12:14:57;;;;;;;16.25;7.47;;;;;;;;;;5085423;28;20518;-85
2022/12/02 12:17:38;;;;;;;15.23;7.85;;;;;;;;;;5062531;28;20030;-84
2022/12/02 12:20:05;;;;;;;15.63;7.35;;;;;;;;;;5059615;28;20029;-84
2022/12/02 12:22:30;;;;;;;14.60;8.00;;;;;;;;;;5064027;28;20043;-85
2022/12/02 12:25:14;;;;;;;15.52;8.38;;;;;;;;;;5065709;28;20036;-85
2022/12/02 12:27:40;;;;;;;14.48;7.90;;;;;;;;;;5084483;28;20060;-84
2022/12/02 12:30:06;;;;;;;16.52;8.60;;;;;;;;;;5063928;28;20408;-85
2022/12/02 12:32:31;;;;;;;15.88;8.63;;;;;;;;;;5072046;28;20036;-84
2022/12/02 12:34:57;;;;;;;16.33;9.18;;;;;;;;;;5062516;28;20340;-85
2022/12/02 12:37:23;;;;;;;14.93;8.57;;;;;;;;;;5056684;28;20056;-85
2022/12/02 12:39:48;;;;;;;14.13;8.07;;;;;;;;;;5057640;28;20026;-85
2022/12/02 12:42:14;;;;;;;13.35;7.07;;;;;;;;;;5090452;28;20047;-84
2022/12/02 12:44:39;;;;;;;13.98;7.10;;;;;;;;;;5062232;28;20452;-84
2022/12/02 12:47:05;;;;;;;16.70;9.18;;;;;;;;;;5053717;28;20066;-85
2022/12/02 12:49:32;;;;;;;13.55;7.32;;;;;;;;;;5054635;28;20027;-85
2022/12/02 12:52:00;;;;;;;14.00;7.65;;;;;;;;;;5053396;28;20034;-85
2022/12/02 12:54:25;;;;;;;15.05;7.72;;;;;;;;;;5045198;28;20107;-84
2022/12/02 12:56:51;;;;;;;15.23;7.75;;;;;;;;;;5070279;28;20118;-85
2022/12/02 12:59:16;;;;;;;17.63;7.90;;;;;;;;;;5079848;28;20426;-85
2022/12/02 13:01:43;;;;;;;21.42;10.88;;;;;;;;;;5087576;28;20031;-84
2022/12/02 13:04:09;;;;;;;14.90;8.75;;;;;;;;;;5071533;28;20098;-84
2022/12/02 13:06:38;;;;;;;19.40;8.70;;;;;;;;;;5069283;28;20067;-83
2022/12/02 13:09:03;;;;;;;15.70;8.38;;;;;;;;;;5061734;28;20036;-85
2022/12/02 13:11:29;;;;;;;19.70;11.50;;;;;;;;;;5086120;28;20043;-85
2022/12/02 13:13:54;;;;;;;15.98;8.73;;;;;;;;;;5071773;28;20107;-85
2022/12/02 13:16:20;;;;;;;15.77;8.93;;;;;;;;;;5068116;28;20032;-84
2022/12/02 13:18:45;;;;;;;19.10;8.93;;;;;;;;;;5077109;28;20035;-85
2022/12/02 13:21:11;;;;;;;14.60;8.48;;;;;;;;;;5068354;28;20040;-85
2022/12/02 13:23:36;;;;;;;14.32;7.80;;;;;;;;;;5068952;28;20051;-84
2022/12/02 13:26:02;;;;;;;15.73;8.63;;;;;;;;;;5067818;28;20542;-84
2022/12/02 13:28:27;;;;;;;14.30;8.35;;;;;;;;;;5071138;28;20398;-84
2022/12/02 13:30:54;;;;;;;16.50;8.43;;;;;;;;;;5054498;28;20155;-84
2022/12/02 13:33:20;;;;;;;20.90;9.10;;;;;;;;;;5030407;28;20095;-85
2022/12/02 13:35:45;;;;;;;16.27;8.00;;;;;;;;;;5054393;28;20051;-83
2022/12/02 13:38:12;;;;;;;15.85;8.65;;;;;;;;;;5045879;28;20016;-85
2022/12/02 13:40:37;;;;;;;17.20;8.65;;;;;;;;;;5090438;28;20036;-85
2022/12/02 13:43:03;;;;;;;16.98;8.57;;;;;;;;;;5073403;28;20298;-84
2022/12/02 13:45:29;;;;;;;15.27;8.65;;;;;;;;;;5059140;28;20472;-85
2022/12/02 13:47:54;;;;;;;15.43;8.38;;;;;;;;;;5054464;28;20047;-85
2022/12/02 13:50:20;;;;;;;17.05;8.93;;;;;;;;;;5065972;28;20066;-83
2022/12/02 13:52:45;;;;;;;19.42;9.63;;;;;;;;;;5045437;28;20036;-85
2022/12/02 13:55:11;;;;;;;19.80;9.88;;;;;;;;;;5055831;28;20127;-85
2022/12/02 13:57:36;;;;;;;16.75;9.30;;;;;;;;;;5073979;28;20028;-85
2022/12/02 14:00:02;;;;;;;22.17;10.80;;;;;;;;;;5090726;28;20077;-86
2022/12/02 14:02:38;;;;;;;18.52;9.70;;;;;;;;;;5074293;28;20032;-85
2022/12/02 14:05:04;;;;;;;20.08;10.65;;;;;;;;;;5069964;28;20384;-83
2022/12/02 14:07:29;;;;;;;20.63;10.77;;;;;;;;;;5081612;28;20068;-84
2022/12/02 14:09:58;;;;;;;19.95;10.05;;;;;;;;;;5085295;28;20039;-85
2022/12/02 14:12:23;;;;;;;24.25;10.85;;;;;;;;;;5081249;28;20439;-84
2022/12/02 14:14:49;;;;;;;23.20;10.77;;;;;;;;;;5065465;28;20056;-84
2022/12/02 14:17:14;;;;;;;18.17;10.88;;;;;;;;;;5078797;28;20028;-83
2022/12/02 14:19:40;;;;;;;21.48;11.27;;;;;;;;;;5068232;28;20033;-84
2022/12/02 14:22:05;;;;;;;21.33;10.77;;;;;;;;;;5089062;28;20039;-85
2022/12/02 14:24:31;;;;;;;23.73;10.80;;;;;;;;;;5068242;28;20045;-84
2022/12/02 14:26:56;;;;;;;23.25;11.90;;;;;;;;;;5088633;28;20056;-84
2022/12/02 14:29:22;;;;;;;25.20;12.20;;;;;;;;;;5057300;28;20102;-84
2022/12/02 14:31:47;;;;;;;25.08;13.68;;;;;;;;;;5090766;28;20032;-84
2022/12/02 14:34:13;;;;;;;28.17;13.30;;;;;;;;;;5086634;28;20035;-84
2022/12/02 14:36:38;;;;;;;28.27;13.70;;;;;;;;;;5079127;28;20401;-85
2022/12/02 14:39:05;;;;;;;26.77;12.93;;;;;;;;;;5074363;28;20068;-83
2022/12/02 14:41:31;;;;;;;30.60;13.63;;;;;;;;;;5060952;28;20031;-83